createdAt,value
2022-10-31T00:02:10.547Z,22.80
2022-10-31T00:04:56.321Z,23.20
2022-10-31T00:07:41.599Z,22.87
2022-10-31T00:10:27.101Z,25.50
2022-10-31T00:13:14.115Z,23.80
2022-10-31T00:16:01.818Z,26.37
2022-10-31T00:18:54.838Z,24.67
2022-10-31T00:21:40.882Z,22.17
2022-10-31T00:24:29.507Z,24.60
2022-10-31T00:27:15.006Z,23.80
2022-10-31T00:30:00.318Z,22.77
2022-10-31T00:32:46.275Z,23.33
2022-10-31T00:35:31.937Z,22.87
2022-10-31T00:38:19.782Z,22.87
2022-10-31T00:41:05.349Z,24.90
2022-10-31T00:43:50.629Z,19.47
2022-10-31T00:46:36.154Z,20.07
2022-10-31T00:49:21.840Z,18.20
2022-10-31T00:52:06.946Z,21.87
2022-10-31T00:54:54.658Z,17.57
2022-10-31T00:57:39.869Z,17.73
2022-10-31T01:00:29.963Z,20.40
2022-10-31T01:03:15.265Z,17.50
2022-10-31T01:06:03.785Z,17.70
2022-10-31T01:08:49.663Z,17.60
2022-10-31T01:11:35.908Z,16.50
2022-10-31T01:14:21.327Z,14.70
2022-10-31T01:17:06.715Z,15.03
2022-10-31T01:19:52.346Z,16.77
2022-10-31T01:22:40.522Z,16.20
2022-10-31T01:25:26.025Z,15.33
2022-10-31T01:28:11.243Z,13.07
2022-10-31T01:31:01.704Z,14.20
2022-10-31T01:33:52.206Z,14.70
2022-10-31T01:36:41.675Z,13.83
2022-10-31T01:39:27.015Z,13.27
2022-10-31T01:42:21.808Z,14.23
2022-10-31T01:45:11.026Z,13.57
2022-10-31T01:47:59.411Z,15.60
2022-10-31T01:50:47.941Z,13.60
2022-10-31T01:53:33.743Z,13.80
2022-10-31T01:56:19.465Z,14.93
2022-10-31T01:59:09.113Z,14.30
2022-10-31T02:01:55.315Z,14.17
2022-10-31T02:04:42.078Z,14.33
2022-10-31T02:07:40.664Z,14.10
2022-10-31T02:10:27.649Z,15.40
2022-10-31T02:13:14.021Z,13.80
2022-10-31T02:16:00.895Z,14.50
2022-10-31T02:18:46.817Z,12.30
2022-10-31T02:21:41.226Z,14.00
2022-10-31T02:24:48.561Z,12.33
2022-10-31T02:27:58.658Z,13.63
2022-10-31T02:30:49.994Z,13.40
2022-10-31T02:33:52.104Z,15.10
2022-10-31T02:36:50.159Z,13.00
2022-10-31T02:40:00.929Z,14.13
2022-10-31T02:43:04.204Z,13.53
2022-10-31T02:46:13.470Z,14.00
2022-10-31T02:49:06.836Z,12.90
2022-10-31T02:51:52.513Z,13.17
2022-10-31T02:54:38.300Z,13.90
2022-10-31T02:57:31.819Z,12.57
2022-10-31T03:00:17.124Z,11.93
2022-10-31T03:03:07.954Z,10.33
2022-10-31T03:06:02.807Z,12.23
2022-10-31T03:09:13.514Z,13.73
2022-10-31T03:12:10.351Z,13.63
2022-10-31T03:15:33.162Z,12.10
2022-10-31T03:18:50.611Z,11.67
2022-10-31T03:22:05.922Z,12.10
2022-10-31T03:24:53.181Z,12.67
2022-10-31T03:27:40.186Z,12.80
2022-10-31T03:30:26.122Z,11.83
2022-10-31T03:33:22.568Z,11.97
2022-10-31T03:36:14.006Z,11.23
2022-10-31T03:39:00.966Z,11.30
2022-10-31T03:41:57.528Z,10.87
2022-10-31T03:44:50.292Z,11.40
2022-10-31T03:47:37.841Z,11.43
2022-10-31T03:50:29.854Z,9.67
2022-10-31T03:53:31.582Z,10.97
2022-10-31T03:56:33.359Z,8.90
2022-10-31T03:59:34.349Z,9.47
2022-10-31T04:02:23.928Z,9.07
2022-10-31T04:05:13.979Z,9.30
2022-10-31T04:08:01.778Z,8.07
2022-10-31T04:10:52.226Z,8.97
2022-10-31T04:13:39.644Z,9.50
2022-10-31T04:16:26.455Z,8.90
2022-10-31T04:19:13.221Z,9.30
2022-10-31T04:21:58.531Z,8.37
2022-10-31T04:24:44.198Z,8.33
2022-10-31T04:27:29.780Z,8.40
2022-10-31T04:30:15.602Z,8.47
2022-10-31T04:33:03.793Z,8.63
2022-10-31T04:35:49.168Z,8.87
2022-10-31T04:38:34.951Z,9.37
2022-10-31T04:41:22.854Z,8.20
2022-10-31T04:44:12.731Z,8.10
2022-10-31T04:46:58.342Z,9.13
2022-10-31T04:49:51.222Z,9.00
2022-10-31T04:52:46.894Z,8.03
2022-10-31T04:55:32.421Z,7.30
2022-10-31T04:58:20.364Z,9.57
2022-10-31T05:01:06.735Z,8.50
2022-10-31T05:03:52.193Z,8.20
2022-10-31T05:06:37.372Z,9.23
2022-10-31T05:09:22.957Z,7.57
2022-10-31T05:12:10.331Z,8.73
2022-10-31T05:14:55.557Z,8.63
2022-10-31T05:17:41.429Z,9.20
2022-10-31T05:20:31.451Z,8.50
2022-10-31T05:23:19.122Z,7.70
2022-10-31T05:26:04.513Z,9.30
2022-10-31T05:28:52.429Z,9.47
2022-10-31T05:31:37.997Z,9.13
2022-10-31T05:34:23.553Z,8.30
2022-10-31T05:37:13.413Z,8.80
2022-10-31T05:40:00.291Z,8.33
2022-10-31T05:42:53.129Z,8.10
2022-10-31T05:45:38.469Z,8.80
2022-10-31T05:48:24.035Z,9.07
2022-10-31T05:51:09.542Z,9.57
2022-10-31T05:53:54.757Z,10.30
2022-10-31T05:56:40.546Z,8.90
2022-10-31T05:59:25.669Z,9.57
2022-10-31T06:02:13.385Z,9.67
2022-10-31T06:04:59.126Z,9.00
2022-10-31T06:07:45.310Z,10.07
2022-10-31T06:10:33.450Z,10.23
2022-10-31T06:13:19.123Z,9.40
2022-10-31T06:16:05.149Z,9.13
2022-10-31T06:18:50.480Z,9.30
2022-10-31T06:21:38.258Z,9.93
2022-10-31T06:24:23.535Z,9.43
2022-10-31T06:27:09.130Z,8.70
2022-10-31T06:29:54.693Z,10.07
2022-10-31T06:32:40.174Z,11.97
2022-10-31T06:35:25.844Z,10.10
2022-10-31T06:38:11.326Z,10.93
2022-10-31T06:40:58.842Z,11.83
2022-10-31T06:43:46.876Z,9.87
2022-10-31T06:46:34.806Z,11.33
2022-10-31T06:49:23.054Z,11.33
2022-10-31T06:52:10.880Z,12.03
2022-10-31T06:54:56.677Z,11.60
2022-10-31T06:57:42.125Z,12.40
2022-10-31T07:00:30.248Z,11.70
2022-10-31T07:03:16.585Z,11.90
2022-10-31T07:06:01.960Z,11.97
2022-10-31T07:08:50.277Z,12.67
2022-10-31T07:11:35.684Z,11.30
2022-10-31T07:14:21.042Z,12.20
2022-10-31T07:17:08.987Z,11.90
2022-10-31T07:19:57.488Z,13.40
2022-10-31T07:22:45.623Z,11.87
2022-10-31T07:25:34.257Z,11.87
2022-10-31T07:28:19.708Z,11.03
2022-10-31T07:31:08.697Z,10.23
2022-10-31T07:33:54.324Z,10.20
2022-10-31T07:36:39.945Z,10.27
2022-10-31T07:39:26.109Z,11.00
2022-10-31T07:42:13.750Z,12.93
2022-10-31T07:44:59.686Z,13.53
2022-10-31T07:47:50.419Z,11.93
2022-10-31T07:50:36.193Z,12.30
2022-10-31T07:53:21.449Z,12.53
2022-10-31T07:56:07.175Z,12.27
2022-10-31T07:58:52.450Z,13.47
2022-10-31T08:01:38.155Z,13.03
2022-10-31T08:04:23.365Z,13.77
2022-10-31T08:07:11.166Z,12.10
2022-10-31T08:09:57.022Z,12.90
2022-10-31T08:12:42.612Z,11.93
2022-10-31T08:15:29.000Z,13.20
2022-10-31T08:18:15.857Z,12.37
2022-10-31T08:21:03.460Z,12.77
2022-10-31T08:23:48.812Z,11.87
2022-10-31T08:26:34.491Z,12.43
2022-10-31T08:29:20.128Z,13.60
2022-10-31T08:32:05.734Z,11.80
2022-10-31T08:34:51.050Z,12.03
2022-10-31T08:37:39.055Z,11.53
2022-10-31T08:40:25.401Z,10.53
2022-10-31T08:43:15.881Z,12.27
2022-10-31T08:46:04.239Z,12.10
2022-10-31T08:48:50.264Z,12.37
2022-10-31T08:51:35.855Z,12.17
2022-10-31T08:54:21.928Z,10.40
2022-10-31T08:57:12.777Z,12.63
2022-10-31T08:59:58.196Z,12.60
2022-10-31T09:02:43.697Z,11.27
2022-10-31T09:05:30.174Z,11.97
2022-10-31T09:08:20.232Z,12.07
2022-10-31T09:11:08.944Z,12.27
2022-10-31T09:13:57.367Z,12.20
2022-10-31T09:16:42.721Z,12.33
2022-10-31T09:19:28.474Z,12.57
2022-10-31T09:22:13.626Z,12.43
2022-10-31T09:24:58.988Z,13.03
2022-10-31T09:27:44.298Z,13.73
2022-10-31T09:30:32.576Z,12.30
2022-10-31T09:33:19.090Z,12.43
2022-10-31T09:36:07.682Z,13.20
2022-10-31T09:38:53.313Z,14.17
2022-10-31T09:41:57.220Z,15.20
2022-10-31T09:44:58.158Z,17.60
2022-10-31T09:48:05.103Z,16.67
2022-10-31T09:50:58.186Z,17.73
2022-10-31T09:53:52.820Z,17.87
2022-10-31T09:56:38.940Z,16.87
2022-10-31T09:59:33.898Z,18.10
2022-10-31T10:02:26.788Z,19.43
2022-10-31T10:05:16.712Z,20.50
2022-10-31T10:08:11.433Z,18.13
2022-10-31T10:11:11.553Z,19.30
2022-10-31T10:14:34.749Z,18.27
2022-10-31T10:17:28.676Z,18.43
2022-10-31T10:20:26.455Z,17.30
2022-10-31T10:23:29.801Z,16.40
2022-10-31T10:26:50.456Z,18.13
2022-10-31T10:29:42.965Z,15.47
2022-10-31T10:32:31.124Z,14.33
2022-10-31T10:35:24.059Z,14.40
2022-10-31T10:38:12.465Z,12.23
2022-10-31T10:41:00.001Z,15.07
2022-10-31T10:47:11.261Z,14.17
2022-10-31T10:49:57.001Z,14.10
2022-10-31T10:52:50.961Z,12.77
2022-10-31T10:55:44.251Z,14.20
2022-10-31T10:58:32.314Z,13.70
2022-10-31T11:01:19.782Z,12.90
2022-10-31T11:04:32.972Z,16.00
2022-10-31T11:07:19.348Z,14.70
2022-10-31T11:10:14.802Z,15.53
2022-10-31T11:13:04.149Z,14.33
2022-10-31T11:16:07.200Z,14.67
2022-10-31T11:19:05.987Z,13.90
2022-10-31T11:21:54.487Z,12.20
2022-10-31T11:24:42.501Z,14.77
2022-10-31T11:27:28.277Z,14.93
2022-10-31T11:30:15.455Z,13.80
2022-10-31T11:33:01.285Z,13.90
2022-10-31T11:35:49.923Z,13.60
2022-10-31T11:38:42.684Z,14.53
2022-10-31T11:41:39.498Z,13.47
2022-10-31T11:44:31.016Z,13.77
2022-10-31T11:47:18.678Z,14.20
2022-10-31T11:50:16.382Z,14.47
2022-10-31T11:53:03.254Z,13.73
2022-10-31T11:56:01.659Z,13.63
2022-10-31T11:59:04.232Z,15.80
2022-10-31T12:01:52.541Z,14.93
2022-10-31T12:04:47.066Z,14.87
2022-10-31T12:07:34.902Z,14.83
2022-10-31T12:10:25.649Z,18.10
2022-10-31T12:13:41.374Z,16.20
2022-10-31T12:16:51.365Z,14.80
2022-10-31T12:20:25.074Z,14.10
2022-10-31T12:23:46.414Z,13.90
2022-10-31T12:26:47.568Z,14.57
2022-10-31T12:30:14.372Z,14.80
2022-10-31T12:33:27.421Z,14.30
2022-10-31T12:36:30.964Z,14.70
2022-10-31T12:39:31.761Z,13.80
2022-10-31T12:42:39.525Z,15.00
2022-10-31T12:45:34.710Z,14.57
2022-10-31T12:48:43.209Z,14.37
2022-10-31T12:51:37.447Z,12.83
2022-10-31T12:54:31.054Z,16.00
2022-10-31T12:57:25.383Z,13.37
2022-10-31T13:00:20.254Z,13.43
2022-10-31T13:03:34.613Z,11.33
2022-10-31T13:06:25.765Z,12.07
2022-10-31T13:09:18.065Z,11.73
2022-10-31T13:12:09.662Z,12.03
2022-10-31T13:15:05.163Z,12.57
2022-10-31T13:17:55.817Z,12.13
2022-10-31T13:20:44.495Z,12.67
2022-10-31T13:23:52.005Z,11.77
2022-10-31T13:26:54.513Z,12.60
2022-10-31T13:30:13.863Z,11.97
2022-10-31T13:33:16.447Z,13.47
2022-10-31T13:36:05.028Z,13.40
2022-10-31T13:39:16.726Z,12.53
2022-10-31T13:42:10.213Z,12.73
2022-10-31T13:45:07.688Z,11.83
2022-10-31T13:48:15.349Z,11.40
2022-10-31T13:51:07.247Z,12.53
2022-10-31T13:53:54.883Z,13.47
2022-10-31T13:56:41.267Z,13.57
2022-10-31T13:59:29.805Z,13.43
2022-10-31T14:02:19.833Z,14.50
2022-10-31T14:05:23.956Z,13.20
2022-10-31T14:08:24.365Z,13.83
2022-10-31T14:11:22.542Z,14.50
2022-10-31T14:14:13.317Z,13.07
2022-10-31T14:17:01.959Z,13.27
2022-10-31T14:20:12.273Z,11.83
2022-10-31T14:25:48.538Z,13.77
2022-10-31T14:28:37.905Z,12.17
2022-10-31T14:31:38.762Z,12.47
2022-10-31T14:34:59.179Z,13.67
2022-10-31T14:38:04.692Z,15.07
2022-10-31T14:41:08.579Z,13.13
2022-10-31T14:44:09.323Z,16.20
2022-10-31T14:47:27.564Z,16.43
2022-10-31T14:50:28.260Z,17.17
2022-10-31T14:53:27.530Z,17.17
2022-10-31T14:56:16.641Z,16.67
2022-10-31T14:59:09.157Z,16.93
2022-10-31T15:02:11.814Z,17.93
2022-10-31T15:05:17.483Z,17.73
2022-10-31T15:08:06.305Z,17.50
2022-10-31T15:10:51.999Z,19.00
2022-10-31T15:13:44.154Z,17.80
2022-10-31T15:16:35.833Z,19.37
2022-10-31T15:19:27.600Z,18.50
2022-10-31T15:22:19.671Z,17.33
2022-10-31T15:25:06.997Z,18.73
2022-10-31T15:27:54.063Z,18.30
2022-10-31T15:30:39.835Z,20.57
2022-10-31T15:33:43.828Z,21.40
2022-10-31T15:36:37.301Z,19.40
2022-10-31T15:39:24.887Z,21.40
2022-10-31T15:42:28.521Z,21.30
2022-10-31T15:45:14.123Z,20.40
2022-10-31T15:48:17.502Z,19.27
2022-10-31T15:51:03.544Z,21.63
2022-10-31T15:53:54.871Z,22.50
2022-10-31T15:56:44.940Z,20.97
2022-10-31T15:59:31.220Z,19.30
2022-10-31T16:02:22.352Z,22.30
2022-10-31T16:05:20.899Z,22.23
2022-10-31T16:08:25.467Z,22.27
2022-10-31T16:11:10.825Z,21.67
2022-10-31T16:14:01.907Z,21.93
2022-10-31T16:16:57.800Z,22.73
2022-10-31T16:19:53.392Z,23.33
2022-10-31T16:22:40.653Z,23.83
2022-10-31T16:25:38.585Z,23.70
2022-10-31T16:28:30.945Z,22.43
2022-10-31T16:31:29.988Z,23.40
2022-10-31T16:34:22.358Z,20.70
2022-10-31T16:37:12.645Z,22.57
2022-10-31T16:39:57.752Z,23.37
2022-10-31T16:42:45.105Z,24.90
2022-10-31T16:45:32.456Z,23.43
2022-10-31T16:48:23.565Z,21.73
2022-10-31T16:51:09.356Z,23.20
2022-10-31T16:53:57.446Z,24.63
2022-10-31T16:56:43.811Z,23.13
2022-10-31T16:59:30.491Z,25.00
2022-10-31T17:02:18.225Z,23.63
2022-10-31T17:05:04.351Z,25.07
2022-10-31T17:07:51.686Z,24.97
2022-10-31T17:10:38.680Z,24.03
2022-10-31T17:13:27.243Z,26.47
2022-10-31T17:16:15.217Z,24.77
2022-10-31T17:19:02.574Z,26.53
2022-10-31T17:21:48.052Z,26.37
2022-10-31T17:24:35.894Z,24.27
2022-10-31T17:27:21.635Z,26.57
2022-10-31T17:30:07.226Z,26.50
2022-10-31T17:32:55.342Z,27.93
2022-10-31T17:35:41.626Z,28.60
2022-10-31T17:38:27.080Z,26.17
2022-10-31T17:41:12.711Z,28.77
2022-10-31T17:43:59.479Z,30.90
2022-10-31T17:46:45.281Z,31.63
2022-10-31T17:49:30.891Z,29.03
2022-10-31T17:52:16.579Z,28.63
2022-10-31T17:55:02.871Z,31.70
2022-10-31T17:57:48.481Z,26.90
2022-10-31T18:00:34.630Z,29.57
2022-10-31T18:03:25.011Z,32.10
2022-10-31T18:09:26.880Z,31.87
2022-10-31T18:12:15.332Z,27.57
2022-10-31T18:15:00.624Z,31.27
2022-10-31T18:17:47.146Z,29.90
2022-10-31T18:20:35.465Z,27.43
2022-10-31T18:23:20.711Z,26.50
2022-10-31T18:26:08.665Z,28.90
2022-10-31T18:28:54.446Z,28.60
2022-10-31T18:31:40.248Z,26.17
2022-10-31T18:34:27.969Z,29.00
2022-10-31T18:37:13.383Z,26.37
2022-10-31T18:39:59.106Z,26.07
2022-10-31T18:42:44.874Z,29.33
2022-10-31T18:45:41.488Z,27.17
2022-10-31T18:48:32.035Z,25.27
2022-10-31T18:51:18.464Z,25.47
2022-10-31T18:57:21.042Z,25.37
2022-10-31T19:00:06.976Z,24.87
2022-10-31T19:02:57.464Z,24.20
2022-10-31T19:08:52.976Z,21.33
2022-10-31T19:11:39.571Z,25.00
2022-10-31T19:14:24.834Z,23.80
2022-10-31T19:17:11.047Z,23.97
2022-10-31T19:19:59.237Z,22.87
2022-10-31T19:22:47.174Z,22.40
2022-10-31T19:25:34.889Z,22.17
2022-10-31T19:28:21.255Z,24.13
2022-10-31T19:31:07.864Z,24.40
2022-10-31T19:33:53.210Z,24.10
2022-10-31T19:36:41.371Z,24.50
2022-10-31T19:39:29.837Z,24.97
2022-10-31T19:42:15.459Z,22.07
2022-10-31T19:45:02.200Z,23.30
2022-10-31T19:47:49.939Z,23.00
2022-10-31T19:50:35.253Z,21.37
2022-10-31T19:53:21.182Z,25.67
2022-10-31T19:56:27.077Z,24.50
2022-10-31T19:59:12.591Z,24.80
2022-10-31T20:01:58.091Z,24.80
2022-10-31T20:04:44.233Z,23.73
2022-10-31T20:07:30.111Z,23.90
2022-10-31T20:10:16.513Z,23.90
2022-10-31T20:13:02.144Z,24.50
2022-10-31T20:15:49.737Z,24.87
2022-10-31T20:18:35.935Z,23.97
2022-10-31T20:21:26.822Z,25.70
2022-10-31T20:24:14.166Z,22.50
2022-10-31T20:26:59.575Z,23.43
2022-10-31T20:29:44.957Z,24.77
2022-10-31T20:32:30.457Z,23.97
2022-10-31T20:35:16.244Z,23.30
2022-10-31T20:38:02.229Z,23.83
2022-10-31T20:40:50.480Z,22.60
2022-10-31T20:43:38.761Z,24.70
2022-10-31T20:46:27.680Z,24.43
2022-10-31T20:49:15.686Z,23.17
2022-10-31T20:52:01.480Z,27.20
2022-10-31T20:54:49.833Z,24.70
2022-10-31T20:57:35.476Z,27.23
2022-10-31T21:00:23.132Z,25.60
2022-10-31T21:03:13.532Z,25.07
2022-10-31T21:06:03.170Z,25.30
2022-10-31T21:08:49.129Z,24.90
2022-10-31T21:11:35.024Z,23.80
2022-10-31T21:14:20.596Z,24.37
2022-10-31T21:17:06.866Z,25.50
2022-10-31T21:19:55.020Z,24.30
2022-10-31T21:22:42.844Z,24.90
2022-10-31T21:25:28.594Z,24.63
2022-10-31T21:28:14.292Z,21.70
2022-10-31T21:31:02.054Z,23.00
2022-10-31T21:33:47.631Z,23.37
2022-10-31T21:36:34.586Z,23.73
2022-10-31T21:39:20.433Z,23.27
2022-10-31T21:42:05.830Z,21.33
2022-10-31T21:44:51.487Z,22.90
2022-10-31T21:47:36.754Z,23.10
2022-10-31T21:50:27.318Z,21.30
2022-10-31T21:53:31.592Z,22.10
2022-10-31T21:56:17.200Z,20.03
2022-10-31T21:59:04.867Z,20.70
2022-10-31T22:01:51.147Z,21.73
2022-10-31T22:04:36.739Z,21.43
2022-10-31T22:07:22.352Z,23.10
2022-10-31T22:10:08.450Z,24.87
2022-10-31T22:12:53.832Z,23.60
2022-10-31T22:15:44.511Z,23.07
2022-10-31T22:18:30.644Z,23.13
2022-10-31T22:21:19.009Z,25.60
2022-10-31T22:24:06.742Z,26.77
2022-10-31T22:26:53.578Z,25.87
2022-10-31T22:29:39.238Z,24.90
2022-10-31T22:32:27.228Z,25.77
2022-10-31T22:35:12.699Z,24.50
2022-10-31T22:37:58.206Z,25.30
2022-10-31T22:40:43.967Z,25.40
2022-10-31T22:43:31.527Z,25.17
2022-10-31T22:46:24.506Z,25.40
2022-10-31T22:49:15.051Z,26.00
2022-10-31T22:52:03.413Z,27.00
2022-10-31T22:54:49.795Z,24.80
2022-10-31T22:57:37.896Z,26.73
2022-10-31T23:00:25.365Z,28.00
2022-10-31T23:03:13.408Z,28.73
2022-10-31T23:06:02.167Z,29.30
2022-10-31T23:08:48.710Z,28.60
2022-10-31T23:11:39.762Z,28.97
2022-10-31T23:14:25.661Z,29.20
2022-10-31T23:17:17.684Z,29.27
2022-10-31T23:20:03.815Z,28.90
2022-10-31T23:22:49.214Z,28.53
2022-10-31T23:25:55.750Z,28.23
2022-10-31T23:28:43.736Z,29.63
2022-10-31T23:31:31.319Z,28.20
2022-10-31T23:34:19.157Z,28.87
2022-10-31T23:39:54.008Z,28.43
2022-10-31T23:42:39.960Z,26.60
2022-10-31T23:45:27.301Z,27.27
2022-10-31T23:48:12.771Z,26.90
2022-10-31T23:50:58.270Z,27.90
2022-10-31T23:53:46.628Z,26.47
2022-10-31T23:56:32.036Z,27.07
2022-10-31T23:59:20.258Z,25.93
